»·PEaware :: BER7393 KSFO-EDDL

BER7393 :: KSFO-EDDL

FLIGHT INFORMATION

Flight Status: Arrived
Operator:
Air Berlin
More flights by this operator :: More flights under this callsign
Pilot: Cullen C. (7783)
Aircraft: AIRBUS A330
(A330)
More flights by this aircraft type
Origin: KSFO San Francisco Intl
United States
Destination: EDDL Dusseldorf
Germany
More flights between these airports :: More routes between these airports
Route: TRUKN2 ORRCA Q120 GALLI BAM J32 MLD J158 DDY/N0485F330 KD78U KP84A KP87G KP90K YYB YQB/N0480F350 MIILS N267A JOOPY/M082F350 49N050W 51N040W 52N030W 53N020W MALOT/N0482F350 GISTI/N0483F370 BANBA UP2 STU UL9 KONAN UL607 KOK PODEN Y862 KENUM M170 NVO T857 BIKMU BIKMU1G
File this flight plan on PilotEdge
Remarks:
Altitude:
(Current/Filed)
31,000ft
Speed:
(Current/Filed)
490kts
Departed: 22-Jul-17 07:40 PM
Arrived: 23-Jul-17 06:27 AM
Distance/Time
Traveled:
4835nm/10:47
Distance/Time
To Go:
Arrived

Flight Plot

Page will automatically refresh every two minutes.

Flight plan parsing failed; only flown route is shown


Map Options




Map Legend


Flown Route
Filed Route
Departure Airport
Arrival Airport
Navaid (VOR, NDB)
Fix

Horizontal Profiles

Position Reports

Time Latitude Longitude Heading Altitude Ground
Speed
22-Jul-17 19:02 37.611215 -122.390395 42 26ft 0kts
22-Jul-17 19:03 37.611215 -122.390395 42 26ft 0kts
22-Jul-17 19:04 37.611215 -122.390395 42 26ft 0kts
22-Jul-17 19:05 37.611215 -122.390395 42 26ft 0kts
22-Jul-17 19:06 37.611215 -122.390395 42 25ft 0kts
22-Jul-17 19:07 37.611215 -122.390395 42 25ft 0kts
22-Jul-17 19:08 37.611215 -122.390395 42 25ft 0kts
22-Jul-17 19:09 37.611215 -122.390395 42 25ft 0kts
22-Jul-17 19:10 37.611215 -122.390395 42 25ft 0kts
22-Jul-17 19:11 37.611215 -122.390395 42 25ft 0kts
22-Jul-17 19:12 37.611215 -122.390395 42 25ft 0kts
22-Jul-17 19:13 37.611215 -122.390395 42 25ft 0kts
22-Jul-17 19:14 37.611215 -122.390395 42 25ft 0kts
22-Jul-17 19:15 37.611215 -122.390395 42 25ft 0kts
22-Jul-17 19:16 37.611215 -122.390395 42 25ft 0kts
22-Jul-17 19:17 37.611215 -122.390395 42 25ft 0kts
22-Jul-17 19:18 37.611215 -122.390395 42 25ft 0kts
22-Jul-17 19:19 37.611215 -122.390395 42 25ft 0kts
22-Jul-17 19:20 37.611215 -122.390395 42 25ft 0kts
22-Jul-17 19:21 37.611215 -122.390395 42 25ft 0kts
22-Jul-17 19:22 37.611215 -122.390395 42 25ft 0kts
22-Jul-17 19:23 37.611215 -122.390395 42 25ft 0kts
22-Jul-17 19:24 37.611215 -122.390395 42 25ft 0kts
22-Jul-17 19:25 37.611215 -122.390395 42 25ft 0kts
22-Jul-17 19:26 37.611215 -122.390395 42 25ft 0kts
22-Jul-17 19:27 37.611214 -122.390395 42 25ft 0kts
22-Jul-17 19:28 37.610962 -122.390689 43 25ft 2kts
22-Jul-17 19:29 37.610958 -122.391308 132 25ft 2kts
22-Jul-17 19:30 37.610976 -122.391334 131 25ft 0kts
22-Jul-17 19:31 37.610663 -122.390874 130 25ft 8kts
22-Jul-17 19:32 37.611190 -122.387670 79 25ft 12kts
22-Jul-17 19:33 37.610665 -122.384785 118 25ft 1kts
22-Jul-17 19:34 37.610576 -122.384556 112 25ft 4kts
22-Jul-17 19:35 37.612308 -122.381566 27 25ft 14kts
22-Jul-17 19:36 37.615951 -122.379168 27 25ft 14kts
22-Jul-17 19:37 37.617920 -122.377504 107 25ft 3kts
22-Jul-17 19:38 37.616836 -122.374283 123 25ft 17kts
22-Jul-17 19:39 37.614972 -122.369842 119 25ft 8kts
22-Jul-17 19:40 37.613656 -122.367716 122 25ft 9kts
22-Jul-17 19:41 37.612014 -122.363910 117 25ft 13kts
22-Jul-17 19:42 37.610537 -122.359843 82 25ft 10kts
22-Jul-17 19:43 37.614146 -122.364149 298 25ft 72kts
22-Jul-17 19:44 37.633140 -122.405260 322 915ft 158kts
22-Jul-17 19:45 37.661897 -122.367768 78 2474ft 206kts
22-Jul-17 19:46 37.685229 -122.291948 64 3513ft 280kts
22-Jul-17 19:47 37.725494 -122.208888 34 5672ft 286kts
22-Jul-17 19:48 37.790198 -122.149258 36 7733ft 296kts
22-Jul-17 19:49 37.857361 -122.088225 37 9786ft 304kts
22-Jul-17 19:50 37.929303 -122.022868 37 10977ft 343kts
22-Jul-17 19:51 38.011226 -121.948332 37 12031ft 386kts
22-Jul-17 19:52 38.095049 -121.871889 37 13768ft 401kts
22-Jul-17 19:53 38.182272 -121.792239 37 15518ft 413kts
22-Jul-17 19:54 38.275403 -121.706782 37 17238ft 424kts
22-Jul-17 19:55 38.371892 -121.617941 37 18851ft 436kts
22-Jul-17 19:56 38.462850 -121.517443 53 20325ft 442kts
22-Jul-17 19:57 38.537542 -121.395074 53 21679ft 452kts
22-Jul-17 19:58 38.610839 -121.272337 54 22928ft 461kts
22-Jul-17 19:59 38.686818 -121.144633 54 24127ft 470kts
22-Jul-17 20:00 38.758836 -121.023131 54 25218ft 477kts
22-Jul-17 20:01 38.838993 -120.887378 53 26297ft 485kts
22-Jul-17 20:02 38.920820 -120.748204 53 27344ft 491kts
22-Jul-17 20:03 39.002840 -120.608070 54 28333ft 496kts
22-Jul-17 20:04 39.086014 -120.465139 51 29194ft 503kts
22-Jul-17 20:05 39.168201 -120.324257 51 30187ft 503kts
22-Jul-17 20:06 39.252577 -120.183660 51 31139ft 502kts
22-Jul-17 20:07 39.337223 -120.041994 51 31250ft 504kts
22-Jul-17 20:08 39.422149 -119.899235 51 31149ft 503kts
22-Jul-17 20:09 39.506597 -119.756645 51 31080ft 503kts
22-Jul-17 20:10 39.591280 -119.613012 51 31100ft 503kts
22-Jul-17 20:11 39.675921 -119.468796 51 31085ft 503kts
22-Jul-17 20:12 39.745546 -119.349670 52 31094ft 503kts
22-Jul-17 20:13 39.843241 -119.181629 52 31065ft 503kts
22-Jul-17 20:14 39.911410 -119.059419 56 31045ft 504kts
22-Jul-17 20:15 39.987266 -118.907302 59 31032ft 504kts
22-Jul-17 20:16 40.055199 -118.748318 60 31048ft 506kts
22-Jul-17 20:17 40.122331 -118.590549 60 31036ft 506kts
22-Jul-17 20:18 40.201555 -118.403166 60 31045ft 505kts
22-Jul-17 20:19 40.266944 -118.247425 61 31027ft 506kts
22-Jul-17 20:20 40.320339 -118.111246 72 31041ft 506kts
22-Jul-17 20:21 40.359438 -117.934203 74 31071ft 507kts
22-Jul-17 20:22 40.397029 -117.756527 74 31096ft 506kts
22-Jul-17 20:23 40.434148 -117.579367 74 31093ft 506kts
22-Jul-17 20:24 40.471161 -117.401208 74 31108ft 506kts
22-Jul-17 20:25 40.507059 -117.226808 75 31110ft 506kts
22-Jul-17 20:26 40.543398 -117.048956 75 31114ft 508kts
22-Jul-17 20:27 40.588613 -116.875092 66 31107ft 495kts
22-Jul-17 20:28 40.651388 -116.712508 65 31113ft 501kts
22-Jul-17 20:29 40.714728 -116.549931 66 31118ft 499kts
22-Jul-17 20:30 40.773549 -116.398176 66 31106ft 501kts
22-Jul-17 20:31 40.835708 -116.237011 66 31138ft 500kts
22-Jul-17 20:32 40.898624 -116.072866 66 31133ft 501kts
22-Jul-17 20:33 40.961025 -115.909266 66 31139ft 500kts
22-Jul-17 20:34 41.023921 -115.743394 66 31145ft 510kts
22-Jul-17 20:35 41.088307 -115.572430 62 31136ft 527kts
22-Jul-17 20:36 41.151262 -115.405074 61 31148ft 522kts
22-Jul-17 20:37 41.214837 -115.234412 62 31135ft 524kts
22-Jul-17 20:38 41.278918 -115.061543 62 31132ft 524kts
22-Jul-17 20:39 41.342934 -114.887656 63 31134ft 524kts
22-Jul-17 20:40 41.406397 -114.714258 63 31113ft 524kts
22-Jul-17 20:41 41.469697 -114.540287 63 31115ft 524kts
22-Jul-17 20:42 41.532673 -114.366118 63 31123ft 523kts
22-Jul-17 20:43 41.592156 -114.200514 63 31111ft 524kts
22-Jul-17 20:44 41.654591 -114.025776 63 31118ft 523kts
22-Jul-17 20:45 41.716941 -113.850191 63 31131ft 523kts
22-Jul-17 20:46 41.778627 -113.675384 63 31141ft 522kts
22-Jul-17 20:47 41.840341 -113.499429 63 31139ft 522kts
22-Jul-17 20:48 41.898049 -113.333828 64 31137ft 522kts
22-Jul-17 20:49 41.945327 -113.197324 64 31135ft 522kts
22-Jul-17 20:50 42.006187 -113.020733 64 31140ft 522kts
22-Jul-17 20:51 42.066343 -112.845070 64 31166ft 513kts
22-Jul-17 20:52 42.123360 -112.677834 64 31156ft 512kts
22-Jul-17 20:53 42.182316 -112.503628 64 31153ft 511kts
22-Jul-17 20:54 42.222047 -112.322481 76 31131ft 513kts
22-Jul-17 20:55 42.252458 -112.145435 77 31145ft 512kts
22-Jul-17 20:56 42.284133 -111.958470 77 31137ft 512kts
22-Jul-17 20:57 42.315606 -111.770739 77 31135ft 512kts
22-Jul-17 20:58 42.346688 -111.583309 77 31142ft 512kts
22-Jul-17 20:59 42.377465 -111.395686 77 31279ft 511kts
22-Jul-17 21:00 42.407167 -111.212511 77 31307ft 510kts
22-Jul-17 21:01 42.437167 -111.025422 77 31299ft 510kts
22-Jul-17 21:02 42.466874 -110.838324 76 31301ft 507kts
22-Jul-17 21:03 42.496163 -110.651828 76 31305ft 508kts
22-Jul-17 21:04 42.525262 -110.464328 76 31338ft 509kts
22-Jul-17 21:05 42.553098 -110.282822 77 31345ft 509kts
22-Jul-17 21:06 42.581574 -110.095065 77 31350ft 509kts
22-Jul-17 21:07 42.609687 -109.908039 77 31356ft 509kts
22-Jul-17 21:08 42.637573 -109.720330 77 31366ft 508kts
22-Jul-17 21:09 42.665197 -109.532124 77 31366ft 508kts
22-Jul-17 21:10 42.692325 -109.345058 78 31309ft 509kts
22-Jul-17 21:11 42.718689 -109.160874 78 31204ft 509kts
22-Jul-17 21:12 42.745326 -108.972880 78 31190ft 504kts
22-Jul-17 21:13 42.771700 -108.784128 79 31206ft 508kts
22-Jul-17 21:14 42.797741 -108.595376 79 31209ft 509kts
22-Jul-17 21:15 42.823568 -108.405825 79 31206ft 509kts
22-Jul-17 21:16 42.848252 -108.222226 79 31222ft 509kts
22-Jul-17 21:17 42.873452 -108.032453 79 31223ft 509kts
22-Jul-17 21:18 42.898117 -107.843578 78 31241ft 506kts
22-Jul-17 21:19 42.922362 -107.656700 77 31232ft 503kts
22-Jul-17 21:20 42.946188 -107.469969 78 31226ft 501kts
22-Jul-17 21:21 42.969308 -107.286203 78 31241ft 500kts
22-Jul-17 21:22 42.990627 -107.114546 78 31237ft 500kts
22-Jul-17 21:23 43.013478 -106.927832 78 31237ft 498kts
22-Jul-17 21:24 43.035815 -106.743049 77 31239ft 490kts
22-Jul-17 21:25 43.057793 -106.558834 77 31238ft 491kts
22-Jul-17 21:26 43.079455 -106.374468 77 31238ft 491kts
22-Jul-17 21:27 43.062160 -106.195209 109 31245ft 504kts
22-Jul-17 21:28 43.011167 -106.018728 96 31235ft 501kts
22-Jul-17 21:29 43.032650 -105.834413 72 31227ft 489kts
22-Jul-17 21:30 43.066937 -105.654957 72 31228ft 489kts
22-Jul-17 21:31 43.100746 -105.478428 72 31231ft 489kts
22-Jul-17 21:32 43.134064 -105.303585 72 31230ft 489kts
22-Jul-17 21:33 43.167788 -105.124212 72 31231ft 489kts
22-Jul-17 21:34 43.201802 -104.941604 73 31239ft 507kts
22-Jul-17 21:35 43.236097 -104.755810 72 31226ft 502kts
22-Jul-17 21:36 43.270027 -104.570091 72 31209ft 502kts
22-Jul-17 21:37 43.303665 -104.384125 72 31211ft 503kts
22-Jul-17 21:38 43.336537 -104.200388 73 31213ft 504kts
22-Jul-17 21:39 43.369522 -104.014270 73 31264ft 503kts
22-Jul-17 21:40 43.402336 -103.827228 73 31307ft 503kts
22-Jul-17 21:41 43.434719 -103.640695 73 31303ft 503kts
22-Jul-17 21:42 43.466918 -103.453273 73 31302ft 503kts
22-Jul-17 21:43 43.498152 -103.269434 74 31289ft 504kts
22-Jul-17 21:44 43.529846 -103.080988 74 31220ft 509kts
22-Jul-17 21:45 43.561681 -102.889689 74 31153ft 515kts
22-Jul-17 21:46 43.593168 -102.698278 74 31151ft 513kts
22-Jul-17 21:47 43.624407 -102.506279 74 31142ft 513kts
22-Jul-17 21:48 43.654789 -102.317393 74 31148ft 513kts
22-Jul-17 21:49 43.685343 -102.125160 74 31119ft 514kts
22-Jul-17 21:50 43.715633 -101.932537 74 31089ft 514kts
22-Jul-17 21:51 43.745706 -101.738966 74 31079ft 514kts
22-Jul-17 21:52 43.775290 -101.546310 74 31080ft 514kts
22-Jul-17 21:53 43.804631 -101.352881 74 31087ft 514kts
22-Jul-17 21:54 43.833180 -101.162241 75 31084ft 515kts
22-Jul-17 21:55 43.861899 -100.968303 75 31070ft 517kts
22-Jul-17 21:56 43.890772 -100.770892 76 31042ft 528kts
22-Jul-17 21:57 43.919379 -100.572626 76 31045ft 527kts
22-Jul-17 21:58 43.947785 -100.373169 76 32063ft 525kts
22-Jul-17 21:59 43.975358 -100.176981 76 32903ft 524kts
22-Jul-17 22:00 44.002232 -99.978932 78 33701ft 523kts
22-Jul-17 22:01 44.024045 -99.779533 78 34410ft 522kts
22-Jul-17 22:02 44.045352 -99.581320 78 35074ft 518kts
22-Jul-17 22:03 44.066349 -99.382649 78 35037ft 520kts
22-Jul-17 22:04 44.086710 -99.186406 79 35028ft 521kts
22-Jul-17 22:05 44.107060 -98.988469 80 35023ft 528kts
22-Jul-17 22:06 44.127658 -98.782962 81 35016ft 540kts
22-Jul-17 22:07 44.147872 -98.577502 81 35023ft 538kts
22-Jul-17 22:08 44.167756 -98.371360 81 35024ft 537kts
22-Jul-17 22:09 44.185235 -98.186954 82 35017ft 538kts
22-Jul-17 22:10 44.204409 -97.980716 82 35018ft 538kts
22-Jul-17 22:11 44.223268 -97.773804 82 35015ft 537kts
22-Jul-17 22:12 44.241643 -97.567883 82 35019ft 537kts
22-Jul-17 22:13 44.259747 -97.360841 82 35015ft 538kts
22-Jul-17 22:14 44.277349 -97.155072 83 35010ft 539kts
22-Jul-17 22:15 44.294961 -96.944829 83 35007ft 555kts
22-Jul-17 22:16 44.312462 -96.730869 83 35002ft 553kts
22-Jul-17 22:17 44.329124 -96.522327 82 35020ft 536kts
22-Jul-17 22:18 44.345327 -96.314776 83 35001ft 540kts
22-Jul-17 22:19 44.361159 -96.106609 83 34989ft 542kts
22-Jul-17 22:20 44.376697 -95.897621 83 34964ft 541kts
22-Jul-17 22:21 44.391864 -95.688389 83 34962ft 541kts
22-Jul-17 22:22 44.406600 -95.479819 82 34967ft 541kts
22-Jul-17 22:23 44.420881 -95.272227 84 34938ft 541kts
22-Jul-17 22:24 44.434627 -95.066532 83 34937ft 541kts
22-Jul-17 22:25 44.448364 -94.855318 84 34934ft 552kts
22-Jul-17 22:26 44.461941 -94.640615 84 34939ft 554kts
22-Jul-17 22:27 44.475118 -94.425885 84 34937ft 555kts
22-Jul-17 22:28 44.487712 -94.213624 85 34935ft 555kts
22-Jul-17 22:29 44.500369 -93.998955 81 34940ft 554kts
22-Jul-17 22:30 44.530261 -93.787762 77 34954ft 554kts
22-Jul-17 22:31 44.559972 -93.576658 77 34939ft 554kts
22-Jul-17 22:32 44.589238 -93.365547 76 34932ft 553kts
22-Jul-17 22:33 44.617328 -93.159936 77 34925ft 554kts
22-Jul-17 22:34 44.641241 -92.982855 77 34923ft 557kts
22-Jul-17 22:35 44.669714 -92.768851 78 34916ft 560kts
22-Jul-17 22:36 44.697856 -92.554199 78 34911ft 560kts
22-Jul-17 22:37 44.725524 -92.339872 79 34912ft 560kts
22-Jul-17 22:38 44.752749 -92.125536 79 34918ft 560kts
22-Jul-17 22:39 44.779726 -91.909837 79 34918ft 560kts
22-Jul-17 22:40 44.806318 -91.693885 79 34921ft 560kts
22-Jul-17 22:41 44.832452 -91.478138 79 34916ft 560kts
22-Jul-17 22:42 44.857336 -91.269325 80 34911ft 560kts
22-Jul-17 22:43 44.882644 -91.053388 80 34907ft 560kts
22-Jul-17 22:44 44.907523 -90.837320 80 34920ft 560kts
22-Jul-17 22:45 44.932035 -90.620852 81 34929ft 560kts
22-Jul-17 22:46 44.956066 -90.404836 81 35223ft 561kts
22-Jul-17 22:47 44.978902 -90.195657 81 35872ft 557kts
22-Jul-17 22:48 45.003010 -89.981205 75 36378ft 555kts
22-Jul-17 22:49 45.040974 -89.769674 74 36820ft 554kts
22-Jul-17 22:50 45.077992 -89.559305 74 36915ft 553kts
22-Jul-17 22:51 45.113720 -89.354474 74 36918ft 552kts
22-Jul-17 22:52 45.149075 -89.148875 75 36916ft 552kts
22-Jul-17 22:53 45.185034 -88.937215 75 36916ft 553kts
22-Jul-17 22:54 45.220476 -88.725934 75 36911ft 554kts
22-Jul-17 22:55 45.255692 -88.513554 76 36884ft 554kts
22-Jul-17 22:56 45.289075 -88.309704 76 36876ft 553kts
22-Jul-17 22:57 45.323420 -88.097197 76 36888ft 554kts
22-Jul-17 22:58 45.357523 -87.883692 76 36885ft 554kts
22-Jul-17 22:59 45.391159 -87.670359 77 36879ft 554kts
22-Jul-17 23:00 45.424363 -87.456954 77 36882ft 553kts
22-Jul-17 23:01 45.456411 -87.248192 77 36872ft 553kts
22-Jul-17 23:02 45.488788 -87.034334 77 36871ft 555kts
22-Jul-17 23:03 45.521087 -86.818471 77 36875ft 560kts
22-Jul-17 23:04 45.553058 -86.601701 77 36878ft 559kts
22-Jul-17 23:05 45.584604 -86.384731 77 36881ft 559kts
22-Jul-17 23:06 45.615235 -86.170935 77 36885ft 560kts
22-Jul-17 23:07 45.645987 -85.953320 77 36891ft 559kts
22-Jul-17 23:08 45.676235 -85.736136 78 36887ft 560kts
22-Jul-17 23:09 45.706213 -85.517683 78 36894ft 560kts
22-Jul-17 23:10 45.735385 -85.301945 78 36892ft 559kts
22-Jul-17 23:11 45.764424 -85.083521 78 36895ft 562kts
22-Jul-17 23:12 45.793344 -84.863058 78 36912ft 567kts
22-Jul-17 23:13 45.821985 -84.641170 78 36911ft 566kts
22-Jul-17 23:14 45.850062 -84.420043 78 36905ft 566kts
22-Jul-17 23:15 45.877506 -84.200164 79 36905ft 566kts
22-Jul-17 23:16 45.904863 -83.977562 79 36926ft 566kts
22-Jul-17 23:17 45.931612 -83.755862 78 36921ft 565kts
22-Jul-17 23:18 45.958027 -83.533726 78 36928ft 565kts
22-Jul-17 23:19 45.983778 -83.313115 79 36908ft 566kts
22-Jul-17 23:20 46.009223 -83.091118 79 36923ft 566kts
22-Jul-17 23:21 46.034390 -82.867478 78 36924ft 567kts
22-Jul-17 23:22 46.059216 -82.643225 78 36914ft 568kts
22-Jul-17 23:23 46.083548 -82.419116 78 36923ft 568kts
22-Jul-17 23:24 46.106601 -82.203025 79 36920ft 569kts
22-Jul-17 23:25 46.130102 -81.978776 79 36914ft 569kts
22-Jul-17 23:26 46.153216 -81.753075 79 36941ft 568kts
22-Jul-17 23:27 46.175822 -81.528068 79 36976ft 569kts
22-Jul-17 23:28 46.197592 -81.306946 80 36967ft 569kts
22-Jul-17 23:29 46.219117 -81.083246 80 36978ft 569kts
22-Jul-17 23:30 46.240500 -80.856427 79 36976ft 570kts
22-Jul-17 23:31 46.261406 -80.630159 79 36971ft 570kts
22-Jul-17 23:32 46.281721 -80.404712 79 36978ft 568kts
22-Jul-17 23:33 46.301077 -80.185619 80 36970ft 570kts
22-Jul-17 23:34 46.320678 -79.958336 80 36966ft 569kts
22-Jul-17 23:35 46.339797 -79.731189 80 36966ft 569kts
22-Jul-17 23:36 46.358426 -79.504509 80 36968ft 569kts
22-Jul-17 23:37 46.375690 -79.284833 81 36965ft 569kts
22-Jul-17 23:38 46.392859 -79.057924 81 36961ft 571kts
22-Jul-17 23:39 46.409763 -78.829267 80 36967ft 572kts
22-Jul-17 23:40 46.426181 -78.600458 80 36968ft 572kts
22-Jul-17 23:41 46.442154 -78.371412 80 36960ft 572kts
22-Jul-17 23:42 46.456909 -78.153603 81 36957ft 573kts
22-Jul-17 23:43 46.471989 -77.924386 81 36961ft 572kts
22-Jul-17 23:44 46.486657 -77.694499 81 36952ft 572kts
22-Jul-17 23:45 46.500769 -77.465314 81 36957ft 572kts
22-Jul-17 23:46 46.513912 -77.245457 82 36957ft 572kts
22-Jul-17 23:47 46.527102 -77.016238 82 36953ft 571kts
22-Jul-17 23:48 46.539912 -76.786849 82 36954ft 573kts
22-Jul-17 23:49 46.552256 -76.556874 82 36959ft 572kts
22-Jul-17 23:50 46.563901 -76.331554 82 36955ft 572kts
22-Jul-17 23:51 46.575207 -76.103738 83 36940ft 573kts
22-Jul-17 23:52 46.586200 -75.873219 83 36937ft 574kts
22-Jul-17 23:53 46.596730 -75.642469 83 36938ft 573kts
22-Jul-17 23:54 46.606786 -75.411651 83 36941ft 573kts
22-Jul-17 23:55 46.615921 -75.193181 84 36936ft 574kts
22-Jul-17 23:56 46.625044 -74.962467 84 36954ft 573kts
22-Jul-17 23:57 46.633724 -74.730806 84 36965ft 573kts
22-Jul-17 23:58 46.641958 -74.499832 84 36967ft 573kts
22-Jul-17 23:59 46.649373 -74.280101 85 36965ft 573kts
23-Jul-17 00:00 46.656646 -74.049200 85 36960ft 573kts
23-Jul-17 00:01 46.663498 -73.818167 85 36965ft 574kts
23-Jul-17 00:02 46.669825 -73.587604 85 36959ft 573kts
23-Jul-17 00:03 46.675798 -73.356497 84 36956ft 573kts
23-Jul-17 00:04 46.681048 -73.134176 85 36952ft 574kts
23-Jul-17 00:05 46.686094 -72.901721 86 36957ft 576kts
23-Jul-17 00:06 46.690635 -72.669639 86 36959ft 575kts
23-Jul-17 00:07 46.694701 -72.437452 86 36956ft 575kts
23-Jul-17 00:08 46.698232 -72.211461 87 36952ft 576kts
23-Jul-17 00:09 46.701392 -71.978574 87 36964ft 576kts
23-Jul-17 00:10 46.704080 -71.745320 87 36968ft 576kts
23-Jul-17 00:11 46.711672 -71.513693 82 36960ft 575kts
23-Jul-17 00:12 46.723943 -71.289679 83 36964ft 574kts
23-Jul-17 00:13 46.736154 -71.058294 83 36966ft 575kts
23-Jul-17 00:14 46.748002 -70.825528 83 36964ft 580kts
23-Jul-17 00:15 46.759428 -70.590945 83 36967ft 580kts
23-Jul-17 00:16 46.770347 -70.357388 83 36967ft 581kts
23-Jul-17 00:17 46.780431 -70.129986 84 36947ft 581kts
23-Jul-17 00:18 46.790522 -69.895099 84 36954ft 580kts
23-Jul-17 00:19 46.800027 -69.660868 84 36929ft 580kts
23-Jul-17 00:20 46.809055 -69.426763 84 36910ft 580kts
23-Jul-17 00:21 46.817416 -69.198135 85 36909ft 580kts
23-Jul-17 00:22 46.825532 -68.962745 85 36909ft 584kts
23-Jul-17 00:23 46.833202 -68.725386 85 36915ft 587kts
23-Jul-17 00:24 46.840426 -68.488075 85 36920ft 587kts
23-Jul-17 00:25 46.846878 -68.261047 86 36918ft 586kts
23-Jul-17 00:26 46.853097 -68.023233 86 36913ft 587kts
23-Jul-17 00:27 46.858845 -67.785699 86 36910ft 587kts
23-Jul-17 00:28 46.864132 -67.547541 86 36914ft 587kts
23-Jul-17 00:29 46.868809 -67.315539 87 36907ft 587kts
23-Jul-17 00:30 46.873080 -67.079995 86 36910ft 590kts
23-Jul-17 00:31 46.903963 -66.845283 73 36904ft 588kts
23-Jul-17 00:32 46.938012 -66.614418 73 36890ft 584kts
23-Jul-17 00:33 46.971633 -66.383480 73 36884ft 578kts
23-Jul-17 00:34 47.003407 -66.161519 73 36861ft 575kts
23-Jul-17 00:35 47.035636 -65.933291 73 36865ft 571kts
23-Jul-17 00:36 47.067265 -65.705848 73 36867ft 571kts
23-Jul-17 00:37 47.098516 -65.477538 73 36864ft 571kts
23-Jul-17 00:38 47.127846 -65.260762 74 36869ft 570kts
23-Jul-17 00:39 47.158137 -65.032357 74 36863ft 570kts
23-Jul-17 00:40 47.188122 -64.802773 74 36862ft 576kts
23-Jul-17 00:41 47.217802 -64.571526 74 36874ft 575kts
23-Jul-17 00:42 47.246641 -64.343146 75 36877ft 575kts
23-Jul-17 00:43 47.275217 -64.112798 76 36869ft 576kts
23-Jul-17 00:44 47.303427 -63.881531 75 36851ft 576kts
23-Jul-17 00:45 47.331296 -63.649074 75 36849ft 576kts
23-Jul-17 00:46 47.358666 -63.416488 75 36848ft 576kts
23-Jul-17 00:47 47.385142 -63.187172 76 36848ft 577kts
23-Jul-17 00:48 47.411583 -62.954295 76 36845ft 576kts
23-Jul-17 00:49 47.437396 -62.722320 76 36844ft 576kts
23-Jul-17 00:50 47.462861 -62.488988 76 36851ft 576kts
23-Jul-17 00:51 47.487563 -62.258224 77 36848ft 576kts
23-Jul-17 00:52 47.512060 -62.024655 77 36844ft 577kts
23-Jul-17 00:53 47.536158 -61.790397 78 36846ft 577kts
23-Jul-17 00:54 47.555838 -61.595303 77 36836ft 576kts
23-Jul-17 00:55 47.579011 -61.360962 77 36818ft 576kts
23-Jul-17 00:56 47.601471 -61.128973 78 36807ft 577kts
23-Jul-17 00:57 47.623672 -60.894504 79 36808ft 574kts
23-Jul-17 00:58 47.645344 -60.660242 79 36811ft 574kts
23-Jul-17 00:59 47.669909 -60.388140 79 36810ft 574kts
23-Jul-17 01:00 47.690455 -60.154708 80 36806ft 575kts
23-Jul-17 01:01 47.707285 -59.959214 80 36775ft 575kts
23-Jul-17 01:02 47.727072 -59.724116 80 36691ft 574kts
23-Jul-17 01:03 47.749465 -59.450754 80 36694ft 574kts
23-Jul-17 01:04 47.764986 -59.256197 80 36694ft 574kts
23-Jul-17 01:05 47.783350 -59.020424 81 36691ft 575kts
23-Jul-17 01:06 47.801152 -58.785547 81 36689ft 569kts
23-Jul-17 01:07 47.818305 -58.552658 81 36693ft 571kts
23-Jul-17 01:08 47.834644 -58.324696 82 36688ft 570kts
23-Jul-17 01:09 47.850945 -58.090303 82 36692ft 570kts
23-Jul-17 01:10 47.866799 -57.855595 82 36690ft 570kts
23-Jul-17 01:11 47.882146 -57.621055 82 36689ft 570kts
23-Jul-17 01:12 47.896988 -57.386856 82 36654ft 570kts
23-Jul-17 01:13 47.926485 -57.158246 75 36642ft 568kts
23-Jul-17 01:14 47.957367 -56.927862 76 36642ft 564kts
23-Jul-17 01:15 47.987409 -56.699737 76 36647ft 563kts
23-Jul-17 01:16 48.017102 -56.470590 76 36647ft 563kts
23-Jul-17 01:17 48.046168 -56.242606 77 36641ft 563kts
23-Jul-17 01:18 48.075068 -56.012023 77 36644ft 569kts
23-Jul-17 01:19 48.103190 -55.783963 77 36645ft 568kts
23-Jul-17 01:20 48.131477 -55.551181 77 36646ft 568kts
23-Jul-17 01:21 48.158921 -55.320519 78 36640ft 568kts
23-Jul-17 01:22 48.186101 -55.087749 78 36645ft 568kts
23-Jul-17 01:23 48.212708 -54.855728 79 36646ft 566kts
23-Jul-17 01:24 48.238830 -54.623525 79 36644ft 566kts
23-Jul-17 01:25 48.264585 -54.390344 78 36646ft 566kts
23-Jul-17 01:26 48.289553 -54.159618 79 36643ft 566kts
23-Jul-17 01:27 48.314305 -53.926528 80 36646ft 566kts
23-Jul-17 01:28 48.338611 -53.692948 79 36660ft 566kts
23-Jul-17 01:29 48.362400 -53.459627 79 36689ft 566kts
23-Jul-17 01:30 48.385652 -53.226455 80 36696ft 566kts
23-Jul-17 01:31 48.408529 -52.992397 80 36699ft 565kts
23-Jul-17 01:32 48.430812 -52.759350 81 36700ft 559kts
23-Jul-17 01:33 48.452445 -52.527827 81 36701ft 561kts
23-Jul-17 01:34 48.473687 -52.295725 81 36697ft 561kts
23-Jul-17 01:35 48.494400 -52.063665 82 36698ft 561kts
23-Jul-17 01:36 48.541040 -51.842651 65 36699ft 557kts
23-Jul-17 01:37 48.597165 -51.625012 65 36704ft 556kts
23-Jul-17 01:38 48.652891 -51.407089 65 36702ft 556kts
23-Jul-17 01:39 48.708068 -51.189126 66 36700ft 557kts
23-Jul-17 01:40 48.762845 -50.970818 66 36700ft 551kts
23-Jul-17 01:41 48.816426 -50.755115 67 36700ft 547kts
23-Jul-17 01:42 48.869679 -50.538648 67 36700ft 547kts
23-Jul-17 01:43 48.922243 -50.322919 68 36697ft 547kts
23-Jul-17 01:44 48.974573 -50.105968 68 36700ft 547kts
23-Jul-17 01:45 49.027314 -49.891713 68 36701ft 540kts
23-Jul-17 01:46 49.080515 -49.679160 69 36701ft 533kts
23-Jul-17 01:47 49.132554 -49.469807 69 36699ft 525kts
23-Jul-17 01:48 49.183756 -49.261359 70 36699ft 527kts
23-Jul-17 01:49 49.234806 -49.051739 71 36699ft 527kts
23-Jul-17 01:50 49.285594 -48.841019 71 36699ft 527kts
23-Jul-17 01:51 49.335882 -48.630451 71 36700ft 527kts
23-Jul-17 01:52 49.385779 -48.419495 71 36700ft 527kts
23-Jul-17 01:53 49.434337 -48.212100 72 36699ft 527kts
23-Jul-17 01:54 49.483581 -47.999811 72 36699ft 527kts
23-Jul-17 01:55 49.532213 -47.788085 72 36700ft 527kts
23-Jul-17 01:56 49.580598 -47.575313 72 36700ft 527kts
23-Jul-17 01:57 49.628551 -47.362310 72 36700ft 527kts
23-Jul-17 01:58 49.676151 -47.148605 73 36699ft 527kts
23-Jul-17 01:59 49.723251 -46.935176 73 36700ft 525kts
23-Jul-17 02:00 49.769618 -46.722729 74 36700ft 521kts
23-Jul-17 02:01 49.815694 -46.509448 74 36700ft 522kts
23-Jul-17 02:02 49.861223 -46.296518 74 36698ft 522kts
23-Jul-17 02:03 49.906136 -46.084179 74 36700ft 521kts
23-Jul-17 02:04 49.950883 -45.870470 74 36702ft 521kts
23-Jul-17 02:05 49.995306 -45.656025 74 36700ft 521kts
23-Jul-17 02:06 50.039116 -45.442253 74 36701ft 521kts
23-Jul-17 02:07 50.082640 -45.227486 75 36700ft 521kts
23-Jul-17 02:08 50.125947 -45.012167 76 36697ft 520kts
23-Jul-17 02:09 50.168477 -44.797740 76 36698ft 518kts
23-Jul-17 02:10 50.210405 -44.583882 76 36700ft 518kts
23-Jul-17 02:11 50.252166 -44.368562 76 36699ft 518kts
23-Jul-17 02:12 50.293339 -44.153733 77 36698ft 517kts
23-Jul-17 02:13 50.334301 -43.937717 77 36698ft 517kts
23-Jul-17 02:14 50.374712 -43.722058 77 36701ft 518kts
23-Jul-17 02:15 50.414783 -43.505739 77 36700ft 518kts
23-Jul-17 02:16 50.454457 -43.289030 78 36697ft 517kts
23-Jul-17 02:17 50.493734 -43.072044 78 36699ft 521kts
23-Jul-17 02:18 50.532915 -42.852698 80 36711ft 524kts
23-Jul-17 02:19 50.571790 -42.632471 80 36727ft 523kts
23-Jul-17 02:20 50.610175 -42.412360 79 36722ft 523kts
23-Jul-17 02:21 50.648236 -42.191309 81 36749ft 522kts
23-Jul-17 02:22 50.685714 -41.970935 80 36767ft 522kts
23-Jul-17 02:23 50.722857 -41.749695 80 36778ft 523kts
23-Jul-17 02:24 50.759594 -41.528005 80 36775ft 523kts
23-Jul-17 02:25 50.795982 -41.305675 81 36779ft 522kts
23-Jul-17 02:26 50.831834 -41.083487 81 36778ft 522kts
23-Jul-17 02:27 50.867261 -40.861204 82 36781ft 524kts
23-Jul-17 02:28 50.902361 -40.637646 82 36781ft 524kts
23-Jul-17 02:29 50.936985 -40.414291 82 36780ft 523kts
23-Jul-17 02:30 50.971094 -40.191129 83 36780ft 520kts
23-Jul-17 02:31 51.004496 -39.968527 83 36779ft 520kts
23-Jul-17 02:32 51.036655 -39.745522 83 36781ft 519kts
23-Jul-17 02:33 51.068401 -39.522109 83 36782ft 517kts
23-Jul-17 02:34 51.099614 -39.299066 83 36776ft 518kts
23-Jul-17 02:35 51.129807 -39.080953 84 36778ft 519kts
23-Jul-17 02:36 51.160354 -38.856264 84 36779ft 523kts
23-Jul-17 02:37 51.190638 -38.629679 84 36775ft 523kts
23-Jul-17 02:38 51.220538 -38.402521 84 36779ft 523kts
23-Jul-17 02:39 51.249276 -38.180580 85 36777ft 522kts
23-Jul-17 02:40 51.278231 -37.953365 85 36777ft 523kts
23-Jul-17 02:41 51.306763 -37.726094 85 36777ft 522kts
23-Jul-17 02:42 51.334713 -37.499223 85 36779ft 522kts
23-Jul-17 02:43 51.362290 -37.271691 86 36776ft 522kts
23-Jul-17 02:44 51.389429 -37.043542 85 36778ft 523kts
23-Jul-17 02:45 51.416229 -36.814782 85 36780ft 522kts
23-Jul-17 02:46 51.442520 -36.586069 85 36924ft 523kts
23-Jul-17 02:47 51.468359 -36.357135 85 37146ft 522kts
23-Jul-17 02:48 51.493681 -36.128579 86 37357ft 521kts
23-Jul-17 02:49 51.518535 -35.900073 86 37342ft 521kts
23-Jul-17 02:50 51.542938 -35.671306 86 37346ft 521kts
23-Jul-17 02:51 51.566961 -35.441729 86 37352ft 522kts
23-Jul-17 02:52 51.590458 -35.212665 87 37344ft 520kts
23-Jul-17 02:53 51.613551 -34.982888 87 37342ft 521kts
23-Jul-17 02:54 51.636155 -34.753455 87 37350ft 518kts
23-Jul-17 02:55 51.658230 -34.524338 87 37348ft 519kts
23-Jul-17 02:56 51.679884 -34.294979 88 37340ft 519kts
23-Jul-17 02:57 51.701101 -34.065125 88 37348ft 519kts
23-Jul-17 02:58 51.721848 -33.835372 88 37351ft 519kts
23-Jul-17 02:59 51.742098 -33.605997 88 37345ft 518kts
23-Jul-17 03:00 51.761969 -33.375593 88 37344ft 519kts
23-Jul-17 03:01 51.781351 -33.145447 89 37348ft 518kts
23-Jul-17 03:02 51.800401 -32.914293 90 37350ft 523kts
23-Jul-17 03:03 51.818966 -32.682273 91 37347ft 520kts
23-Jul-17 03:04 51.837109 -32.449848 91 37345ft 522kts
23-Jul-17 03:05 51.854774 -32.217783 92 37345ft 520kts
23-Jul-17 03:06 51.871937 -31.986055 91 37349ft 520kts
23-Jul-17 03:07 51.888694 -31.753459 91 37349ft 521kts
23-Jul-17 03:08 51.904964 -31.521054 91 37348ft 521kts
23-Jul-17 03:09 51.920816 -31.288259 92 37345ft 519kts
23-Jul-17 03:10 51.936040 -31.056229 91 37348ft 521kts
23-Jul-17 03:11 51.950978 -30.823781 90 37347ft 519kts
23-Jul-17 03:12 51.965406 -30.591027 90 37340ft 518kts
23-Jul-17 03:13 51.979334 -30.358756 90 37348ft 519kts
23-Jul-17 03:14 51.992794 -30.126448 91 37354ft 519kts
23-Jul-17 03:15 52.015089 -29.896004 82 37339ft 527kts
23-Jul-17 03:16 52.048165 -29.664302 82 37348ft 525kts
23-Jul-17 03:17 52.080748 -29.433334 82 37347ft 526kts
23-Jul-17 03:18 52.112958 -29.202070 83 37345ft 523kts
23-Jul-17 03:19 52.139216 -29.010170 82 37346ft 526kts
23-Jul-17 03:20 52.170401 -28.778617 80 37345ft 521kts
23-Jul-17 03:21 52.201033 -28.548614 80 37282ft 522kts
23-Jul-17 03:22 52.230526 -28.322878 81 37240ft 521kts
23-Jul-17 03:23 52.260145 -28.092467 81 37107ft 520kts
23-Jul-17 03:24 52.289417 -27.861007 81 37104ft 521kts
23-Jul-17 03:25 52.318234 -27.629255 81 37100ft 521kts
23-Jul-17 03:26 52.346604 -27.397196 81 37103ft 521kts
23-Jul-17 03:27 52.374418 -27.165562 82 37104ft 520kts
23-Jul-17 03:28 52.401755 -26.933196 80 37102ft 520kts
23-Jul-17 03:29 52.428638 -26.701914 79 37103ft 518kts
23-Jul-17 03:30 52.455031 -26.470085 79 37104ft 518kts
23-Jul-17 03:31 52.480925 -26.238263 80 37103ft 518kts
23-Jul-17 03:32 52.506366 -26.006206 80 37103ft 518kts
23-Jul-17 03:33 52.531363 -25.773935 80 37102ft 518kts
23-Jul-17 03:34 52.555953 -25.540712 80 37104ft 518kts
23-Jul-17 03:35 52.579972 -25.308467 81 37101ft 518kts
23-Jul-17 03:36 52.603543 -25.075099 80 37103ft 519kts
23-Jul-17 03:37 52.626809 -24.841243 79 37103ft 517kts
23-Jul-17 03:38 52.649482 -24.608088 79 37102ft 517kts
23-Jul-17 03:39 52.671769 -24.373820 79 37104ft 518kts
23-Jul-17 03:40 52.693494 -24.140258 80 37122ft 518kts
23-Jul-17 03:41 52.714848 -23.905612 80 37159ft 518kts
23-Jul-17 03:42 52.735681 -23.671399 80 37156ft 518kts
23-Jul-17 03:43 52.756089 -23.436524 80 37156ft 517kts
23-Jul-17 03:44 52.776020 -23.201486 81 37157ft 518kts
23-Jul-17 03:45 52.795426 -22.966600 80 37156ft 518kts
23-Jul-17 03:46 52.814389 -22.731599 78 37156ft 515kts
23-Jul-17 03:47 52.832956 -22.496284 78 37158ft 516kts
23-Jul-17 03:48 52.850960 -22.261526 79 37158ft 517kts
23-Jul-17 03:49 52.868493 -22.026280 79 37155ft 517kts
23-Jul-17 03:50 52.885647 -21.789912 79 37156ft 517kts
23-Jul-17 03:51 52.902304 -21.553791 79 37157ft 517kts
23-Jul-17 03:52 52.918460 -21.317952 80 37154ft 517kts
23-Jul-17 03:53 52.934171 -21.081303 80 37156ft 517kts
23-Jul-17 03:54 52.949323 -20.845049 78 37156ft 513kts
23-Jul-17 03:55 52.964104 -20.609554 78 37156ft 515kts
23-Jul-17 03:56 52.978333 -20.373977 78 37156ft 515kts
23-Jul-17 03:57 52.992155 -20.137036 79 37151ft 517kts
23-Jul-17 03:58 53.001869 -19.899732 82 37048ft 520kts
23-Jul-17 03:59 53.006571 -19.660745 82 37018ft 520kts
23-Jul-17 04:00 53.010688 -19.420490 82 37024ft 520kts
23-Jul-17 04:01 53.014297 -19.181449 83 37022ft 521kts
23-Jul-17 04:02 53.017372 -18.941423 81 37018ft 519kts
23-Jul-17 04:03 53.020097 -18.702776 81 37019ft 520kts
23-Jul-17 04:04 53.022271 -18.462418 81 37021ft 520kts
23-Jul-17 04:05 53.023938 -18.227322 82 37018ft 522kts
23-Jul-17 04:06 53.025157 -17.987218 82 37020ft 521kts
23-Jul-17 04:07 53.025898 -17.746969 82 37021ft 521kts
23-Jul-17 04:08 53.026153 -17.506421 82 37020ft 521kts
23-Jul-17 04:09 53.025931 -17.266529 83 37021ft 522kts
23-Jul-17 04:10 53.025207 -17.025629 83 37020ft 522kts
23-Jul-17 04:11 53.024005 -16.787829 83 37018ft 510kts
23-Jul-17 04:12 53.022392 -16.552634 83 37021ft 512kts
23-Jul-17 04:13 53.020293 -16.317420 83 37017ft 511kts
23-Jul-17 04:14 53.017705 -16.081059 83 37019ft 511kts
23-Jul-17 04:15 53.014661 -15.844814 83 37020ft 512kts
23-Jul-17 04:16 53.011157 -15.609054 83 37020ft 512kts
23-Jul-17 04:17 53.007194 -15.374013 83 37021ft 511kts
23-Jul-17 04:18 53.002735 -15.137901 84 37024ft 513kts
23-Jul-17 04:19 53.000342 -14.900184 81 37048ft 512kts
23-Jul-17 04:20 53.000889 -14.665027 81 37050ft 514kts
23-Jul-17 04:21 53.000976 -14.429161 81 37048ft 512kts
23-Jul-17 04:22 53.000584 -14.193173 82 37039ft 512kts
23-Jul-17 04:23 52.995089 -13.957295 92 37053ft 522kts
23-Jul-17 04:24 52.971659 -13.719887 91 37053ft 522kts
23-Jul-17 04:25 52.947245 -13.482613 91 37044ft 524kts
23-Jul-17 04:26 52.922247 -13.244932 92 37045ft 526kts
23-Jul-17 04:27 52.897037 -13.009756 93 37051ft 513kts
23-Jul-17 04:28 52.871707 -12.778428 94 37045ft 512kts
23-Jul-17 04:29 52.845871 -12.546566 94 37049ft 513kts
23-Jul-17 04:30 52.821578 -12.332669 94 37047ft 512kts
23-Jul-17 04:31 52.795170 -12.103827 95 37049ft 513kts
23-Jul-17 04:32 52.768045 -11.873060 95 37048ft 513kts
23-Jul-17 04:33 52.740487 -11.642700 95 37046ft 512kts
23-Jul-17 04:34 52.712357 -11.411613 95 37051ft 512kts
23-Jul-17 04:35 52.684290 -11.185089 96 37043ft 515kts
23-Jul-17 04:36 52.655358 -10.955003 96 37046ft 514kts
23-Jul-17 04:37 52.625989 -10.725602 95 37047ft 513kts
23-Jul-17 04:38 52.596230 -10.496762 95 37049ft 512kts
23-Jul-17 04:39 52.566337 -10.270518 96 37052ft 513kts
23-Jul-17 04:40 52.535603 -10.041645 96 37045ft 514kts
23-Jul-17 04:41 52.504488 -9.813660 96 37050ft 513kts
23-Jul-17 04:42 52.472923 -9.585673 96 37050ft 513kts
23-Jul-17 04:43 52.440792 -9.357330 96 37047ft 513kts
23-Jul-17 04:44 52.408666 -9.132124 97 37034ft 514kts
23-Jul-17 04:45 52.375843 -8.905244 99 37024ft 511kts
23-Jul-17 04:46 52.342691 -8.680099 99 37020ft 510kts
23-Jul-17 04:47 52.309200 -8.455559 99 37020ft 510kts
23-Jul-17 04:48 52.276393 -8.238517 100 37022ft 511kts
23-Jul-17 04:49 52.241888 -8.013483 100 37024ft 511kts
23-Jul-17 04:50 52.207134 -7.789930 100 37021ft 511kts
23-Jul-17 04:51 52.171836 -7.565938 100 37020ft 511kts
23-Jul-17 04:52 52.136265 -7.343270 101 37023ft 510kts
23-Jul-17 04:53 52.100260 -7.120696 101 37023ft 511kts
23-Jul-17 04:54 52.063574 -6.897047 101 37019ft 512kts
23-Jul-17 04:55 52.026548 -6.674316 101 37023ft 511kts
23-Jul-17 04:56 51.989211 -6.452565 101 37025ft 512kts
23-Jul-17 04:57 51.954496 -6.232148 88 37012ft 505kts
23-Jul-17 04:58 51.961957 -6.007147 81 37028ft 500kts
23-Jul-17 04:59 51.970267 -5.782302 81 37026ft 500kts
23-Jul-17 05:00 51.978180 -5.557593 81 37023ft 500kts
23-Jul-17 05:01 51.985611 -5.334605 82 36984ft 500kts
23-Jul-17 05:02 51.992645 -5.110154 82 36973ft 501kts
23-Jul-17 05:03 51.976815 -4.885030 97 36970ft 510kts
23-Jul-17 05:04 51.950742 -4.660260 98 36975ft 510kts
23-Jul-17 05:05 51.924063 -4.435371 98 36970ft 509kts
23-Jul-17 05:06 51.897992 -4.219178 98 36967ft 510kts
23-Jul-17 05:07 51.870315 -3.994503 98 36966ft 510kts
23-Jul-17 05:08 51.842426 -3.770896 98 36968ft 509kts
23-Jul-17 05:09 51.814001 -3.546533 99 36966ft 510kts
23-Jul-17 05:10 51.785755 -3.327264 99 36964ft 509kts
23-Jul-17 05:11 51.756816 -3.105747 99 36966ft 510kts
23-Jul-17 05:12 51.727225 -2.882598 101 37002ft 509kts
23-Jul-17 05:13 51.697285 -2.660888 101 37002ft 508kts
23-Jul-17 05:14 51.666920 -2.439150 101 36976ft 508kts
23-Jul-17 05:15 51.636632 -2.221042 102 36968ft 509kts
23-Jul-17 05:16 51.605578 -2.000810 102 36972ft 508kts
23-Jul-17 05:17 51.574560 -1.783981 102 36973ft 508kts
23-Jul-17 05:18 51.539310 -1.564985 104 36973ft 509kts
23-Jul-17 05:19 51.507344 -1.346585 100 36968ft 508kts
23-Jul-17 05:20 51.481018 -1.133621 100 36968ft 508kts
23-Jul-17 05:21 51.453752 -0.913903 101 36980ft 507kts
23-Jul-17 05:22 51.426331 -0.696638 101 36995ft 507kts
23-Jul-17 05:23 51.398522 -0.479517 101 36969ft 507kts
23-Jul-17 05:24 51.370466 -0.263693 102 36967ft 507kts
23-Jul-17 05:25 51.341526 -0.044736 102 36967ft 507kts
23-Jul-17 05:26 51.313883 0.174950 101 36967ft 507kts
23-Jul-17 05:27 51.286787 0.394975 101 36951ft 507kts
23-Jul-17 05:28 51.259211 0.615221 101 36951ft 507kts
23-Jul-17 05:29 51.231386 0.833617 102 36962ft 508kts
23-Jul-17 05:30 51.203027 1.052913 102 36968ft 507kts
23-Jul-17 05:31 51.174313 1.271457 103 36968ft 504kts
23-Jul-17 05:32 51.156434 1.492762 95 36982ft 506kts
23-Jul-17 05:33 51.145733 1.708793 95 37022ft 506kts
23-Jul-17 05:34 51.134413 1.930984 95 37004ft 505kts
23-Jul-17 05:35 51.122653 2.153494 95 36995ft 505kts
23-Jul-17 05:36 51.110476 2.375821 95 36995ft 506kts
23-Jul-17 05:37 51.097876 2.598056 95 36995ft 506kts
23-Jul-17 05:38 51.077091 2.814513 101 36993ft 505kts
23-Jul-17 05:39 51.052904 3.033798 101 36995ft 505kts
23-Jul-17 05:40 51.028290 3.252779 102 36996ft 507kts
23-Jul-17 05:41 51.002996 3.473884 102 37008ft 513kts
23-Jul-17 05:42 50.977182 3.695708 103 37020ft 519kts
23-Jul-17 05:43 50.955616 3.878330 103 37020ft 523kts
23-Jul-17 05:44 50.923704 4.143496 103 37010ft 531kts
23-Jul-17 05:45 50.913365 4.228278 103 37005ft 534kts
23-Jul-17 05:46 50.913365 4.228278 103 37005ft 534kts
23-Jul-17 05:47 50.913365 4.228278 103 37005ft 534kts
23-Jul-17 05:48 50.913365 4.228278 103 37005ft 534kts
23-Jul-17 05:49 50.913365 4.228278 103 37005ft 534kts
23-Jul-17 05:50 50.913365 4.228278 103 37005ft 534kts
23-Jul-17 05:51 50.913365 4.228278 103 37005ft 534kts
23-Jul-17 05:52 50.913365 4.228278 103 37005ft 534kts
23-Jul-17 05:53 50.913365 4.228278 103 37005ft 534kts
23-Jul-17 05:54 50.913365 4.228278 103 37005ft 534kts
23-Jul-17 05:55 50.913365 4.228278 103 37005ft 534kts
23-Jul-17 05:56 50.913365 4.228278 103 37005ft 534kts
23-Jul-17 05:57 50.913365 4.228278 103 37005ft 534kts
23-Jul-17 05:58 50.913365 4.228278 103 37005ft 534kts
23-Jul-17 05:59 50.913365 4.228278 103 37005ft 534kts
23-Jul-17 06:00 50.899456 4.341644 104 37002ft 536kts
23-Jul-17 06:01 50.872480 4.566352 102 36821ft 535kts
23-Jul-17 06:02 50.847589 4.786544 103 34357ft 544kts
23-Jul-17 06:03 50.821712 5.011793 104 33062ft 545kts
23-Jul-17 06:04 50.794917 5.240447 104 31560ft 545kts
23-Jul-17 06:05 50.766974 5.474717 103 29898ft 545kts
23-Jul-17 06:06 50.740880 5.697166 103 27676ft 548kts
23-Jul-17 06:07 50.716911 5.904362 103 25040ft 513kts
23-Jul-17 06:08 50.690993 6.118525 104 23400ft 492kts
23-Jul-17 06:09 50.674359 6.324326 76 22153ft 488kts
23-Jul-17 06:10 50.753549 6.478836 50 18812ft 465kts
23-Jul-17 06:11 50.830714 6.619952 20 15696ft 425kts
23-Jul-17 06:12 50.926760 6.657121 6 13718ft 405kts
23-Jul-17 06:13 51.017105 6.677463 1 12052ft 391kts
23-Jul-17 06:14 51.102126 6.677283 12 11490ft 375kts
23-Jul-17 06:15 51.169562 6.720268 22 11023ft 358kts
23-Jul-17 06:16 51.227595 6.761671 22 10586ft 340kts
23-Jul-17 06:17 51.292772 6.809128 22 10127ft 319kts
23-Jul-17 06:18 51.364435 6.861335 22 9221ft 312kts
23-Jul-17 06:19 51.438744 6.915276 22 7909ft 308kts
23-Jul-17 06:20 51.513995 6.970390 22 6519ft 290kts
23-Jul-17 06:21 51.565957 7.048507 101 4821ft 273kts
23-Jul-17 06:22 51.519146 7.070332 208 4223ft 187kts
23-Jul-17 06:23 51.475561 7.039012 205 3467ft 169kts
23-Jul-17 06:24 51.439437 7.013540 203 2973ft 133kts
23-Jul-17 06:25 51.404906 6.982627 216 2984ft 150kts
23-Jul-17 06:26 51.371207 6.944505 235 2680ft 147kts
23-Jul-17 06:27 51.346737 6.893462 231 1865ft 137kts
23-Jul-17 06:28 51.324450 6.846275 233 1200ft 145kts
23-Jul-17 06:29 51.301271 6.797633 233 425ft 131kts
23-Jul-17 06:30 51.285387 6.764143 233 159ft 30kts
23-Jul-17 06:31 51.280781 6.758638 204 159ft 13kts
23-Jul-17 06:32 51.277263 6.759454 92 159ft 10kts
23-Jul-17 06:33 51.278655 6.762872 51 159ft 2kts
23-Jul-17 06:34 51.278803 6.763170 51 159ft 0kts
23-Jul-17 06:35 51.278803 6.763170 51 159ft 0kts
23-Jul-17 06:36 51.278803 6.763170 51 159ft 0kts
23-Jul-17 06:37 51.278803 6.763170 51 159ft 0kts
23-Jul-17 06:38 51.278803 6.763170 51 159ft 0kts
23-Jul-17 06:39 51.281276 6.758978 204 159ft 15kts
23-Jul-17 06:40 51.292797 6.779693 233 172ft 126kts
23-Jul-17 06:41 51.290749 6.775384 233 170ft 119kts
23-Jul-17 06:42 51.278803 6.763170 51 159ft 0kts

Navigation Log

Ident Type
Flight plan parsing failed, navigation log unavailable